Terminal Aerodrome Forecast
Issued by NWS

Home | Current Version | Previous Version | Text Only | Print | Product List | Glossary Off
Versions: 1 2 3 4 5 6 7 8 9 10 11 12 13 14

000
FTUS43 KICT 251137
TAFCNU
TAF
KCNU 251137Z 2512/2612 31018G25KT P6SM SCT030 BKN070
     FM251700 33024G34KT P6SM BKN025 OVC050
     FM252300 34015G21KT P6SM SCT020 BKN035
     FM260200 34008KT P6SM SCT035 SCT070=

USA.gov is the U.S. government's official web portal to all federal, state and local government web resources and services.